sensor_id;sensor_type;location;lat;lon;timestamp;pressure;altitude;pressure_sealevel;temperature;humidity
20825;BME280;10573;50.936;6.978;2024-01-15T00:00:41;99993.56;;;3.63;67.73
20825;BME280;10573;50.936;6.978;2024-01-15T00:03:06;99983.91;;;3.83;67.79
20825;BME280;10573;50.936;6.978;2024-01-15T00:05:32;99977.44;;;3.86;68.01
20825;BME280;10573;50.936;6.978;2024-01-15T00:07:57;99979.13;;;3.64;68.41
20825;BME280;10573;50.936;6.978;2024-01-15T00:10:23;99972.25;;;3.60;68.90
20825;BME280;10573;50.936;6.978;2024-01-15T00:12:48;99980.31;;;3.13;70.18
20825;BME280;10573;50.936;6.978;2024-01-15T00:15:14;99977.13;;;3.08;70.70
20825;BME280;10573;50.936;6.978;2024-01-15T00:17:40;99964.00;;;3.39;70.36
20825;BME280;10573;50.936;6.978;2024-01-15T00:20:06;99970.91;;;3.08;70.92
20825;BME280;10573;50.936;6.978;2024-01-15T00:22:31;99969.25;;;3.29;70.54
20825;BME280;10573;50.936;6.978;2024-01-15T00:24:57;99964.00;;;3.39;70.32
20825;BME280;10573;50.936;6.978;2024-01-15T00:27:22;99966.91;;;3.25;70.51
20825;BME280;10573;50.936;6.978;2024-01-15T00:29:49;99969.31;;;3.16;71.02
20825;BME280;10573;50.936;6.978;2024-01-15T00:32:17;99964.25;;;3.00;71.89
20825;BME280;10573;50.936;6.978;2024-01-15T00:34:42;99961.69;;;3.34;71.59
20825;BME280;10573;50.936;6.978;2024-01-15T00:37:07;99957.91;;;3.13;72.42
20825;BME280;10573;50.936;6.978;2024-01-15T00:39:33;99964.09;;;3.26;72.34
20825;BME280;10573;50.936;6.978;2024-01-15T00:41:58;99958.94;;;3.23;72.49
20825;BME280;10573;50.936;6.978;2024-01-15T00:44:24;99962.91;;;3.42;71.58
20825;BME280;10573;50.936;6.978;2024-01-15T00:46:49;99952.66;;;3.47;72.20
20825;BME280;10573;50.936;6.978;2024-01-15T00:49:15;99951.38;;;3.28;72.30
20825;BME280;10573;50.936;6.978;2024-01-15T00:51:41;99951.63;;;3.25;72.26
20825;BME280;10573;50.936;6.978;2024-01-15T00:54:07;99950.06;;;2.98;73.18
20825;BME280;10573;50.936;6.978;2024-01-15T00:56:32;99953.41;;;3.13;72.91
20825;BME280;10573;50.936;6.978;2024-01-15T00:58:58;99952.78;;;3.10;73.45
20825;BME280;10573;50.936;6.978;2024-01-15T01:01:23;99948.75;;;3.15;73.02
20825;BME280;10573;50.936;6.978;2024-01-15T01:03:49;99951.53;;;3.02;73.35
20825;BME280;10573;50.936;6.978;2024-01-15T01:06:14;99939.38;;;3.21;72.83
20825;BME280;10573;50.936;6.978;2024-01-15T01:08:39;99944.47;;;3.13;72.85
20825;BME280;10573;50.936;6.978;2024-01-15T01:11:05;99949.13;;;3.11;72.80
20825;BME280;10573;50.936;6.978;2024-01-15T01:13:32;99944.31;;;3.03;73.05
20825;BME280;10573;50.936;6.978;2024-01-15T01:15:57;99942.97;;;3.44;72.35
20825;BME280;10573;50.936;6.978;2024-01-15T01:18:23;99945.53;;;3.34;71.94
20825;BME280;10573;50.936;6.978;2024-01-15T01:20:48;99948.88;;;3.14;73.09
20825;BME280;10573;50.936;6.978;2024-01-15T01:23:14;99938.63;;;3.19;73.24
20825;BME280;10573;50.936;6.978;2024-01-15T01:25:39;99947.34;;;3.23;73.18
20825;BME280;10573;50.936;6.978;2024-01-15T01:28:04;99944.00;;;3.08;73.29
20825;BME280;10573;50.936;6.978;2024-01-15T01:30:30;99943.09;;;2.96;73.75
20825;BME280;10573;50.936;6.978;2024-01-15T01:32:55;99935.94;;;3.19;73.43
20825;BME280;10573;50.936;6.978;2024-01-15T01:35:21;99930.69;;;3.17;73.22
20825;BME280;10573;50.936;6.978;2024-01-15T01:37:46;99929.63;;;2.96;73.70
20825;BME280;10573;50.936;6.978;2024-01-15T01:40:11;99918.22;;;3.28;73.33
20825;BME280;10573;50.936;6.978;2024-01-15T01:42:37;99916.13;;;3.31;73.37
20825;BME280;10573;50.936;6.978;2024-01-15T01:45:02;99927.75;;;3.21;73.04
20825;BME280;10573;50.936;6.978;2024-01-15T01:47:29;99921.50;;;3.20;73.41
20825;BME280;10573;50.936;6.978;2024-01-15T01:49:54;99919.91;;;3.17;73.03
20825;BME280;10573;50.936;6.978;2024-01-15T01:52:20;99922.34;;;3.21;73.23
20825;BME280;10573;50.936;6.978;2024-01-15T01:54:45;99923.84;;;3.25;73.00
20825;BME280;10573;50.936;6.978;2024-01-15T01:57:11;99920.50;;;3.10;73.04
20825;BME280;10573;50.936;6.978;2024-01-15T01:59:37;99919.31;;;3.25;73.04
20825;BME280;10573;50.936;6.978;2024-01-15T02:02:04;99920.03;;;3.16;73.00
20825;BME280;10573;50.936;6.978;2024-01-15T02:04:31;99903.91;;;3.27;72.52
20825;BME280;10573;50.936;6.978;2024-01-15T02:06:56;99911.75;;;3.30;72.69
20825;BME280;10573;50.936;6.978;2024-01-15T02:09:22;99922.53;;;3.30;72.47
20825;BME280;10573;50.936;6.978;2024-01-15T02:11:47;99919.34;;;3.36;71.94
20825;BME280;10573;50.936;6.978;2024-01-15T02:14:13;99926.44;;;3.38;71.82
20825;BME280;10573;50.936;6.978;2024-01-15T02:16:39;99936.38;;;3.48;71.51
20825;BME280;10573;50.936;6.978;2024-01-15T02:19:04;99932.03;;;3.23;72.23
20825;BME280;10573;50.936;6.978;2024-01-15T02:21:31;99932.53;;;3.17;72.28
20825;BME280;10573;50.936;6.978;2024-01-15T02:23:57;99923.72;;;3.26;72.15
20825;BME280;10573;50.936;6.978;2024-01-15T02:26:23;99935.72;;;3.33;71.63
20825;BME280;10573;50.936;6.978;2024-01-15T02:28:50;99928.28;;;3.01;72.69
20825;BME280;10573;50.936;6.978;2024-01-15T02:31:16;99939.75;;;3.28;72.64
20825;BME280;10573;50.936;6.978;2024-01-15T02:33:42;99930.69;;;3.29;72.25
20825;BME280;10573;50.936;6.978;2024-01-15T02:36:08;99939.38;;;3.21;72.54
20825;BME280;10573;50.936;6.978;2024-01-15T02:38:33;99934.41;;;3.39;72.12
20825;BME280;10573;50.936;6.978;2024-01-15T02:40:59;99927.19;;;3.51;71.58
20825;BME280;10573;50.936;6.978;2024-01-15T02:43:24;99922.78;;;3.50;71.21
20825;BME280;10573;50.936;6.978;2024-01-15T02:45:49;99927.91;;;3.30;71.83
20825;BME280;10573;50.936;6.978;2024-01-15T02:48:15;99923.63;;;3.50;70.61
20825;BME280;10573;50.936;6.978;2024-01-15T02:50:40;99939.56;;;3.53;71.16
20825;BME280;10573;50.936;6.978;2024-01-15T02:53:06;99928.03;;;3.51;71.08
20825;BME280;10573;50.936;6.978;2024-01-15T02:55:31;99939.56;;;3.53;71.04
20825;BME280;10573;50.936;6.978;2024-01-15T02:57:57;99928.38;;;3.35;71.08
20825;BME280;10573;50.936;6.978;2024-01-15T03:00:22;99926.41;;;3.26;71.02
20825;BME280;10573;50.936;6.978;2024-01-15T03:02:48;99930.47;;;3.43;70.94
20825;BME280;10573;50.936;6.978;2024-01-15T03:05:15;99935.59;;;3.35;71.31
20825;BME280;10573;50.936;6.978;2024-01-15T03:07:41;99936.00;;;3.42;70.72
20825;BME280;10573;50.936;6.978;2024-01-15T03:10:06;99935.16;;;3.41;70.56
20825;BME280;10573;50.936;6.978;2024-01-15T03:12:32;99937.75;;;3.65;70.31
20825;BME280;10573;50.936;6.978;2024-01-15T03:14:58;99940.44;;;3.77;70.40
20825;BME280;10573;50.936;6.978;2024-01-15T03:17:23;99938.84;;;3.74;70.14
20825;BME280;10573;50.936;6.978;2024-01-15T03:19:49;99936.03;;;3.64;70.35
20825;BME280;10573;50.936;6.978;2024-01-15T03:22:15;99932.47;;;3.52;70.89
20825;BME280;10573;50.936;6.978;2024-01-15T03:24:40;99932.22;;;3.78;70.20
20825;BME280;10573;50.936;6.978;2024-01-15T03:27:06;99929.38;;;3.57;70.72
20825;BME280;10573;50.936;6.978;2024-01-15T03:29:31;99927.06;;;3.52;70.54
20825;BME280;10573;50.936;6.978;2024-01-15T03:31:56;99922.56;;;3.64;70.47
20825;BME280;10573;50.936;6.978;2024-01-15T03:34:22;99923.75;;;3.49;70.70
20825;BME280;10573;50.936;6.978;2024-01-15T03:36:47;99924.97;;;3.45;70.75
20825;BME280;10573;50.936;6.978;2024-01-15T03:39:13;99923.75;;;3.49;70.59
20825;BME280;10573;50.936;6.978;2024-01-15T03:41:38;99931.81;;;3.49;70.94
20825;BME280;10573;50.936;6.978;2024-01-15T03:44:04;99928.16;;;3.50;70.94
20825;BME280;10573;50.936;6.978;2024-01-15T03:46:29;99927.69;;;3.56;70.49
20825;BME280;10573;50.936;6.978;2024-01-15T03:48:54;99925.59;;;3.60;70.45
20825;BME280;10573;50.936;6.978;2024-01-15T03:51:20;99922.91;;;3.60;70.63
20825;BME280;10573;50.936;6.978;2024-01-15T03:53:46;99924.16;;;3.67;70.58
20825;BME280;10573;50.936;6.978;2024-01-15T03:56:11;99926.97;;;3.65;70.58
20825;BME280;10573;50.936;6.978;2024-01-15T03:58:37;99915.94;;;3.57;70.91
20825;BME280;10573;50.936;6.978;2024-01-15T04:01:03;99919.97;;;3.51;70.73
20825;BME280;10573;50.936;6.978;2024-01-15T04:03:28;99922.41;;;3.43;71.18
20825;BME280;10573;50.936;6.978;2024-01-15T04:05:53;99916.75;;;3.24;71.92
20825;BME280;10573;50.936;6.978;2024-01-15T04:08:19;99919.34;;;3.36;71.46
20825;BME280;10573;50.936;6.978;2024-01-15T04:10:44;99915.16;;;3.32;72.11
20825;BME280;10573;50.936;6.978;2024-01-15T04:13:10;99917.03;;;3.43;71.61
20825;BME280;10573;50.936;6.978;2024-01-15T04:15:35;99904.81;;;3.62;70.75
20825;BME280;10573;50.936;6.978;2024-01-15T04:18:02;99908.81;;;3.45;71.37
20825;BME280;10573;50.936;6.978;2024-01-15T04:20:27;99908.97;;;3.55;70.79
20825;BME280;10573;50.936;6.978;2024-01-15T04:22:53;99903.69;;;3.76;70.56
20825;BME280;10573;50.936;6.978;2024-01-15T04:25:18;99898.53;;;3.84;70.26
20825;BME280;10573;50.936;6.978;2024-01-15T04:27:43;99898.78;;;3.58;70.72
20825;BME280;10573;50.936;6.978;2024-01-15T04:30:09;99895.34;;;3.45;70.88
20825;BME280;10573;50.936;6.978;2024-01-15T04:32:35;99885.09;;;3.73;70.31
20825;BME280;10573;50.936;6.978;2024-01-15T04:35:01;99884.84;;;3.87;70.28
20825;BME280;10573;50.936;6.978;2024-01-15T04:37:26;99883.97;;;3.64;70.16
20825;BME280;10573;50.936;6.978;2024-01-15T04:39:51;99883.72;;;3.56;70.53
20825;BME280;10573;50.936;6.978;2024-01-15T04:42:20;99879.84;;;3.71;70.35
20825;BME280;10573;50.936;6.978;2024-01-15T04:44:45;99883.50;;;3.93;69.85
20825;BME280;10573;50.936;6.978;2024-01-15T04:47:11;99881.44;;;3.74;70.02
20825;BME280;10573;50.936;6.978;2024-01-15T04:49:39;99877.97;;;3.72;70.12
20825;BME280;10573;50.936;6.978;2024-01-15T04:52:04;99878.97;;;3.82;69.61
20825;BME280;10573;50.936;6.978;2024-01-15T04:54:29;99875.78;;;3.77;69.78
20825;BME280;10573;50.936;6.978;2024-01-15T04:56:55;99867.84;;;3.75;70.05
20825;BME280;10573;50.936;6.978;2024-01-15T04:59:21;99877.03;;;3.61;70.59
20825;BME280;10573;50.936;6.978;2024-01-15T05:01:46;99873.84;;;3.79;70.60
20825;BME280;10573;50.936;6.978;2024-01-15T05:04:12;99871.72;;;3.82;69.95
20825;BME280;10573;50.936;6.978;2024-01-15T05:06:37;99868.41;;;4.01;69.78
20825;BME280;10573;50.936;6.978;2024-01-15T05:09:03;99870.63;;;3.96;69.89
20825;BME280;10573;50.936;6.978;2024-01-15T05:11:29;99866.41;;;4.15;69.72
20825;BME280;10573;50.936;6.978;2024-01-15T05:13:54;99868.91;;;3.95;69.44
20825;BME280;10573;50.936;6.978;2024-01-15T05:16:20;99863.19;;;4.32;69.04
20825;BME280;10573;50.936;6.978;2024-01-15T05:18:45;99866.53;;;4.57;68.54
20825;BME280;10573;50.936;6.978;2024-01-15T05:21:11;99857.47;;;4.14;69.20
20825;BME280;10573;50.936;6.978;2024-01-15T05:23:36;99861.69;;;3.96;69.46
20825;BME280;10573;50.936;6.978;2024-01-15T05:26:01;99865.00;;;3.99;69.41
20825;BME280;10573;50.936;6.978;2024-01-15T05:28:27;99859.00;;;4.40;68.53
20825;BME280;10573;50.936;6.978;2024-01-15T05:30:53;99853.78;;;4.27;69.06
20825;BME280;10573;50.936;6.978;2024-01-15T05:33:21;99865.44;;;4.27;68.63
20825;BME280;10573;50.936;6.978;2024-01-15T05:35:46;99858.97;;;4.51;68.50
20825;BME280;10573;50.936;6.978;2024-01-15T05:38:11;99860.56;;;3.98;69.48
20825;BME280;10573;50.936;6.978;2024-01-15T05:40:37;99856.47;;;4.27;69.32
20825;BME280;10573;50.936;6.978;2024-01-15T05:43:03;99857.28;;;4.39;68.60
20825;BME280;10573;50.936;6.978;2024-01-15T05:45:30;99853.31;;;4.54;68.21
20825;BME280;10573;50.936;6.978;2024-01-15T05:47:55;99858.28;;;4.37;68.50
20825;BME280;10573;50.936;6.978;2024-01-15T05:50:21;99859.34;;;4.02;69.04
20825;BME280;10573;50.936;6.978;2024-01-15T05:52:48;99855.63;;;4.26;69.12
20825;BME280;10573;50.936;6.978;2024-01-15T05:55:13;99850.22;;;4.26;69.12
20825;BME280;10573;50.936;6.978;2024-01-15T05:57:39;99850.84;;;4.18;69.07
20825;BME280;10573;50.936;6.978;2024-01-15T06:00:04;99855.34;;;4.29;69.45
20825;BME280;10573;50.936;6.978;2024-01-15T06:02:30;99844.50;;;4.52;68.84
20825;BME280;10573;50.936;6.978;2024-01-15T06:04:55;99842.63;;;4.20;68.99
20825;BME280;10573;50.936;6.978;2024-01-15T06:07:22;99851.41;;;4.33;68.93
20825;BME280;10573;50.936;6.978;2024-01-15T06:09:49;99843.31;;;4.45;68.93
20825;BME280;10573;50.936;6.978;2024-01-15T06:12:14;99839.75;;;4.44;68.89
20825;BME280;10573;50.936;6.978;2024-01-15T06:14:40;99831.31;;;4.37;69.15
20825;BME280;10573;50.936;6.978;2024-01-15T06:17:10;99845.59;;;4.17;69.36
20825;BME280;10573;50.936;6.978;2024-01-15T06:19:37;99838.53;;;4.05;69.73
20825;BME280;10573;50.936;6.978;2024-01-15T06:22:03;99835.34;;;3.88;70.35
20825;BME280;10573;50.936;6.978;2024-01-15T06:24:28;99840.50;;;3.91;70.37
20825;BME280;10573;50.936;6.978;2024-01-15T06:26:54;99836.84;;;3.92;70.81
20825;BME280;10573;50.936;6.978;2024-01-15T06:29:19;99839.19;;;3.85;70.40
20825;BME280;10573;50.936;6.978;2024-01-15T06:31:44;99836.34;;;3.76;71.01
20825;BME280;10573;50.936;6.978;2024-01-15T06:34:10;99835.34;;;3.88;71.05
20825;BME280;10573;50.936;6.978;2024-01-15T06:36:35;99843.69;;;3.85;70.80
20825;BME280;10573;50.936;6.978;2024-01-15T06:39:01;99837.06;;;3.89;70.63
20825;BME280;10573;50.936;6.978;2024-01-15T06:41:26;99833.19;;;3.82;70.69
20825;BME280;10573;50.936;6.978;2024-01-15T06:43:52;99829.50;;;3.72;71.06
20825;BME280;10573;50.936;6.978;2024-01-15T06:46:21;99831.00;;;4.19;70.20
20825;BME280;10573;50.936;6.978;2024-01-15T06:48:46;99822.28;;;3.83;70.79
20825;BME280;10573;50.936;6.978;2024-01-15T06:51:13;99816.00;;;3.94;70.97
20825;BME280;10573;50.936;6.978;2024-01-15T06:53:39;99816.25;;;3.80;71.09
20825;BME280;10573;50.936;6.978;2024-01-15T06:56:04;99820.53;;;3.94;71.29
20825;BME280;10573;50.936;6.978;2024-01-15T06:58:33;99817.00;;;3.82;71.92
20825;BME280;10573;50.936;6.978;2024-01-15T07:00:59;99816.63;;;3.86;71.53
20825;BME280;10573;50.936;6.978;2024-01-15T07:03:24;99817.84;;;3.94;71.44
20825;BME280;10573;50.936;6.978;2024-01-15T07:05:50;99815.78;;;3.86;72.01
20825;BME280;10573;50.936;6.978;2024-01-15T07:08:15;99821.38;;;4.06;71.01
20825;BME280;10573;50.936;6.978;2024-01-15T07:10:41;99828.00;;;3.90;71.17
20825;BME280;10573;50.936;6.978;2024-01-15T07:13:06;99824.84;;;4.29;70.67
20825;BME280;10573;50.936;6.978;2024-01-15T07:15:31;99827.47;;;4.19;71.07
20825;BME280;10573;50.936;6.978;2024-01-15T07:17:57;99825.88;;;4.49;70.02
20825;BME280;10573;50.936;6.978;2024-01-15T07:20:23;99815.53;;;4.22;70.15
20825;BME280;10573;50.936;6.978;2024-01-15T07:22:49;99821.13;;;4.09;70.82
20825;BME280;10573;50.936;6.978;2024-01-15T07:25:15;99818.28;;;4.10;70.00
20825;BME280;10573;50.936;6.978;2024-01-15T07:27:41;99814.69;;;4.21;70.12
20825;BME280;10573;50.936;6.978;2024-01-15T07:30:13;99820.09;;;4.21;70.18
20825;BME280;10573;50.936;6.978;2024-01-15T07:32:39;99814.13;;;4.06;70.50
20825;BME280;10573;50.936;6.978;2024-01-15T07:35:04;99825.53;;;3.98;70.20
20825;BME280;10573;50.936;6.978;2024-01-15T07:37:31;99811.19;;;4.09;70.06
20825;BME280;10573;50.936;6.978;2024-01-15T07:39:56;99811.94;;;4.32;69.26
20825;BME280;10573;50.936;6.978;2024-01-15T07:42:21;99812.50;;;4.15;70.11
20825;BME280;10573;50.936;6.978;2024-01-15T07:44:47;99821.03;;;4.64;68.96
20825;BME280;10573;50.936;6.978;2024-01-15T07:47:12;99821.47;;;4.48;68.58
20825;BME280;10573;50.936;6.978;2024-01-15T07:49:38;99819.66;;;4.69;68.54
20825;BME280;10573;50.936;6.978;2024-01-15T07:52:03;99814.78;;;4.63;68.50
20825;BME280;10573;50.936;6.978;2024-01-15T07:54:31;99821.63;;;4.67;68.25
20825;BME280;10573;50.936;6.978;2024-01-15T07:56:58;99822.97;;;4.41;68.74
20825;BME280;10573;50.936;6.978;2024-01-15T07:59:24;99810.94;;;4.45;68.48
20825;BME280;10573;50.936;6.978;2024-01-15T08:01:51;99822.28;;;4.60;68.42
20825;BME280;10573;50.936;6.978;2024-01-15T08:04:16;99822.41;;;4.58;68.00
20825;BME280;10573;50.936;6.978;2024-01-15T08:06:42;99823.41;;;4.25;68.46
20825;BME280;10573;50.936;6.978;2024-01-15T08:09:08;99817.97;;;4.36;68.59
20825;BME280;10573;50.936;6.978;2024-01-15T08:11:34;99816.34;;;4.45;68.27
20825;BME280;10573;50.936;6.978;2024-01-15T08:13:59;99810.63;;;4.59;68.12
20825;BME280;10573;50.936;6.978;2024-01-15T08:16:25;99812.13;;;4.52;68.63
20825;BME280;10573;50.936;6.978;2024-01-15T08:18:50;99804.81;;;4.43;68.13
20825;BME280;10573;50.936;6.978;2024-01-15T08:21:16;99804.50;;;4.57;67.98
20825;BME280;10573;50.936;6.978;2024-01-15T08:23:41;99804.34;;;4.37;67.95
20825;BME280;10573;50.936;6.978;2024-01-15T08:26:07;99797.66;;;4.53;67.80
20825;BME280;10573;50.936;6.978;2024-01-15T08:28:34;99803.31;;;4.71;66.96
20825;BME280;10573;50.936;6.978;2024-01-15T08:31:00;99797.56;;;4.76;66.79
20825;BME280;10573;50.936;6.978;2024-01-15T08:33:25;99801.28;;;4.84;66.50
20825;BME280;10573;50.936;6.978;2024-01-15T08:35:50;99811.09;;;5.07;66.33
20825;BME280;10573;50.936;6.978;2024-01-15T08:38:16;99799.38;;;4.54;67.04
20825;BME280;10573;50.936;6.978;2024-01-15T08:40:41;99794.38;;;4.70;66.62
20825;BME280;10573;50.936;6.978;2024-01-15T08:43:07;99805.88;;;4.73;66.80
20825;BME280;10573;50.936;6.978;2024-01-15T08:45:32;99808.06;;;4.79;66.91
20825;BME280;10573;50.936;6.978;2024-01-15T08:47:58;99799.63;;;4.51;67.41
20825;BME280;10573;50.936;6.978;2024-01-15T08:50:24;99792.03;;;4.98;67.23
20825;BME280;10573;50.936;6.978;2024-01-15T08:52:49;99790.22;;;5.09;66.37
20825;BME280;10573;50.936;6.978;2024-01-15T08:55:15;99800.81;;;5.00;67.13
20825;BME280;10573;50.936;6.978;2024-01-15T08:57:40;99803.06;;;4.53;67.15
20825;BME280;10573;50.936;6.978;2024-01-15T09:00:06;99796.00;;;4.62;67.51
20825;BME280;10573;50.936;6.978;2024-01-15T09:02:34;99795.94;;;4.52;67.83
20825;BME280;10573;50.936;6.978;2024-01-15T09:05:00;99812.81;;;4.33;68.39
20825;BME280;10573;50.936;6.978;2024-01-15T09:07:26;99794.09;;;4.31;68.28
20825;BME280;10573;50.936;6.978;2024-01-15T09:09:52;99796.31;;;4.26;68.64
20825;BME280;10573;50.936;6.978;2024-01-15T09:12:18;99795.88;;;4.42;68.42
20825;BME280;10573;50.936;6.978;2024-01-15T09:14:44;99803.78;;;4.55;68.30
20825;BME280;10573;50.936;6.978;2024-01-15T09:17:09;99805.50;;;4.24;68.50
20825;BME280;10573;50.936;6.978;2024-01-15T09:19:35;99818.16;;;4.12;68.87
20825;BME280;10573;50.936;6.978;2024-01-15T09:22:00;99813.25;;;4.17;68.96
20825;BME280;10573;50.936;6.978;2024-01-15T09:24:26;99811.34;;;3.96;69.98
20825;BME280;10573;50.936;6.978;2024-01-15T09:26:51;99815.59;;;4.10;70.26
20825;BME280;10573;50.936;6.978;2024-01-15T09:29:17;99822.31;;;4.16;70.39
20825;BME280;10573;50.936;6.978;2024-01-15T09:31:44;99813.78;;;3.88;70.64
20825;BME280;10573;50.936;6.978;2024-01-15T09:34:10;99810.13;;;3.89;71.00
20825;BME280;10573;50.936;6.978;2024-01-15T09:36:40;99816.91;;;4.16;70.80
20825;BME280;10573;50.936;6.978;2024-01-15T09:39:06;99827.34;;;4.20;70.47
20825;BME280;10573;50.936;6.978;2024-01-15T09:41:37;99825.50;;;4.21;70.45
20825;BME280;10573;50.936;6.978;2024-01-15T09:44:05;99818.59;;;3.73;71.29
20825;BME280;10573;50.936;6.978;2024-01-15T09:46:34;99823.41;;;4.13;71.36
20825;BME280;10573;50.936;6.978;2024-01-15T09:49:00;99826.78;;;3.94;71.51
20825;BME280;10573;50.936;6.978;2024-01-15T09:51:29;99830.31;;;4.06;71.35
20825;BME280;10573;50.936;6.978;2024-01-15T09:53:57;99822.78;;;3.66;72.19
20825;BME280;10573;50.936;6.978;2024-01-15T09:56:23;99837.63;;;4.15;71.67
20825;BME280;10573;50.936;6.978;2024-01-15T09:58:49;99834.59;;;4.09;71.21
20825;BME280;10573;50.936;6.978;2024-01-15T10:01:17;99836.31;;;4.10;71.62
20825;BME280;10573;50.936;6.978;2024-01-15T10:03:42;99825.09;;;3.82;71.90
20825;BME280;10573;50.936;6.978;2024-01-15T10:06:08;99844.47;;;3.42;72.49
20825;BME280;10573;50.936;6.978;2024-01-15T10:08:36;99847.25;;;3.51;73.00
20825;BME280;10573;50.936;6.978;2024-01-15T10:11:02;99847.75;;;3.34;73.54
20825;BME280;10573;50.936;6.978;2024-01-15T10:13:30;99849.34;;;3.25;73.64
20825;BME280;10573;50.936;6.978;2024-01-15T10:15:56;99847.13;;;3.76;72.71
20825;BME280;10573;50.936;6.978;2024-01-15T10:18:21;99841.50;;;3.45;73.16
20825;BME280;10573;50.936;6.978;2024-01-15T10:20:47;99843.91;;;3.93;72.19
20825;BME280;10573;50.936;6.978;2024-01-15T10:23:14;99849.56;;;3.90;72.58
20825;BME280;10573;50.936;6.978;2024-01-15T10:25:41;99850.81;;;3.63;72.32
20825;BME280;10573;50.936;6.978;2024-01-15T10:28:07;99859.84;;;3.28;73.36
20825;BME280;10573;50.936;6.978;2024-01-15T10:30:33;99862.94;;;3.69;72.83
20825;BME280;10573;50.936;6.978;2024-01-15T10:33:03;99853.03;;;3.69;72.63
20825;BME280;10573;50.936;6.978;2024-01-15T10:35:30;99853.75;;;3.60;72.95
20825;BME280;10573;50.936;6.978;2024-01-15T10:37:56;99850.31;;;3.92;72.55
20825;BME280;10573;50.936;6.978;2024-01-15T10:40:22;99850.34;;;3.69;72.49
20825;BME280;10573;50.936;6.978;2024-01-15T10:42:47;99849.22;;;3.83;72.42
20825;BME280;10573;50.936;6.978;2024-01-15T10:45:13;99848.84;;;3.77;72.11
20825;BME280;10573;50.936;6.978;2024-01-15T10:47:40;99855.22;;;3.53;72.87
20825;BME280;10573;50.936;6.978;2024-01-15T10:50:07;99853.03;;;3.69;72.19
20825;BME280;10573;50.936;6.978;2024-01-15T10:52:42;99861.69;;;3.96;71.52
20825;BME280;10573;50.936;6.978;2024-01-15T10:55:11;99854.50;;;3.51;73.32
20825;BME280;10573;50.936;6.978;2024-01-15T10:57:37;99849.47;;;3.35;73.39
20825;BME280;10573;50.936;6.978;2024-01-15T11:00:04;99848.38;;;3.38;73.38
20825;BME280;10573;50.936;6.978;2024-01-15T11:02:35;99851.28;;;3.57;73.26
20825;BME280;10573;50.936;6.978;2024-01-15T11:05:01;99853.75;;;3.38;73.41
20825;BME280;10573;50.936;6.978;2024-01-15T11:07:27;99855.00;;;3.56;73.40
20825;BME280;10573;50.936;6.978;2024-01-15T11:09:52;99859.38;;;3.57;73.41
20825;BME280;10573;50.936;6.978;2024-01-15T11:12:18;99855.97;;;3.78;72.81
20825;BME280;10573;50.936;6.978;2024-01-15T11:14:49;99859.16;;;3.83;73.41
20825;BME280;10573;50.936;6.978;2024-01-15T11:17:16;99866.59;;;4.02;72.58
20825;BME280;10573;50.936;6.978;2024-01-15T11:24:57;99857.19;;;3.74;73.18
20825;BME280;10573;50.936;6.978;2024-01-15T11:27:45;99858.88;;;3.86;72.71
20825;BME280;10573;50.936;6.978;2024-01-15T11:30:14;99855.94;;;4.00;72.62
20825;BME280;10573;50.936;6.978;2024-01-15T11:32:40;99860.03;;;4.27;71.78
20825;BME280;10573;50.936;6.978;2024-01-15T11:35:11;99862.13;;;4.56;71.11
20825;BME280;10573;50.936;6.978;2024-01-15T11:38:03;99857.16;;;4.73;70.41
20825;BME280;10573;50.936;6.978;2024-01-15T11:40:39;99865.66;;;4.68;69.98
20825;BME280;10573;50.936;6.978;2024-01-15T11:43:06;99860.09;;;3.93;70.85
20825;BME280;10573;50.936;6.978;2024-01-15T11:45:34;99852.72;;;4.18;70.76
20825;BME280;10573;50.936;6.978;2024-01-15T11:48:14;99870.34;;;4.22;70.67
20825;BME280;10573;50.936;6.978;2024-01-15T11:50:42;99862.72;;;4.27;70.39
20825;BME280;10573;50.936;6.978;2024-01-15T11:53:36;99875.63;;;4.12;71.24
20825;BME280;10573;50.936;6.978;2024-01-15T11:56:03;99868.66;;;4.10;71.02
20825;BME280;10573;50.936;6.978;2024-01-15T11:58:32;99865.38;;;4.39;70.55
20825;BME280;10573;50.936;6.978;2024-01-15T12:00:59;99867.59;;;4.33;71.00
20825;BME280;10573;50.936;6.978;2024-01-15T12:03:26;99859.97;;;3.83;71.22
20825;BME280;10573;50.936;6.978;2024-01-15T12:05:54;99855.34;;;3.85;71.83
20825;BME280;10573;50.936;6.978;2024-01-15T12:08:24;99860.38;;;3.79;71.83
20825;BME280;10573;50.936;6.978;2024-01-15T12:10:50;99858.63;;;4.00;71.44
20825;BME280;10573;50.936;6.978;2024-01-15T12:13:16;99863.97;;;4.12;71.31
20825;BME280;10573;50.936;6.978;2024-01-15T12:15:45;99853.56;;;4.18;70.91
20825;BME280;10573;50.936;6.978;2024-01-15T12:18:16;99856.22;;;4.62;70.23
20825;BME280;10573;50.936;6.978;2024-01-15T12:20:42;99855.13;;;4.21;70.21
20825;BME280;10573;50.936;6.978;2024-01-15T12:23:09;99845.75;;;4.48;69.55
20825;BME280;10573;50.936;6.978;2024-01-15T12:25:36;99831.16;;;5.35;67.77
20825;BME280;10573;50.936;6.978;2024-01-15T12:28:03;99835.13;;;6.02;64.70
20825;BME280;10573;50.936;6.978;2024-01-15T12:30:30;99820.06;;;6.88;62.45
20825;BME280;10573;50.936;6.978;2024-01-15T12:33:05;99830.25;;;7.23;60.68
20825;BME280;10573;50.936;6.978;2024-01-15T12:35:32;99835.75;;;6.45;61.57
20825;BME280;10573;50.936;6.978;2024-01-15T12:38:00;99829.31;;;6.95;60.98
20825;BME280;10573;50.936;6.978;2024-01-15T12:40:27;99839.38;;;5.64;62.91
20825;BME280;10573;50.936;6.978;2024-01-15T12:42:53;99838.03;;;5.49;63.38
20825;BME280;10573;50.936;6.978;2024-01-15T12:45:20;99847.81;;;5.71;63.51
20825;BME280;10573;50.936;6.978;2024-01-15T12:47:47;99859.94;;;4.82;65.65
20825;BME280;10573;50.936;6.978;2024-01-15T12:50:13;99859.78;;;5.26;65.19
20825;BME280;10573;50.936;6.978;2024-01-15T12:52:42;99853.53;;;5.47;64.71
20825;BME280;10573;50.936;6.978;2024-01-15T12:55:09;99865.47;;;5.23;64.77
20825;BME280;10573;50.936;6.978;2024-01-15T12:57:35;99856.22;;;5.47;65.03
20825;BME280;10573;50.936;6.978;2024-01-15T13:00:02;99849.44;;;5.31;65.19
20825;BME280;10573;50.936;6.978;2024-01-15T13:02:33;99866.22;;;5.25;64.74
20825;BME280;10573;50.936;6.978;2024-01-15T13:04:59;99855.97;;;5.60;63.49
20825;BME280;10573;50.936;6.978;2024-01-15T13:07:25;99850.91;;;5.66;63.99
20825;BME280;10573;50.936;6.978;2024-01-15T13:09:50;99856.91;;;5.80;64.11